Waterville, Ohio
Current Conditions -  °F | °C
As of 9:03 PM on Thursday 18 Dec 2014 (Local Time) from KTOL Reporting Station
Overcast Overcast  
Wind Chill: 20°   Ceiling: 2700
Heat Index: 28°   Visibility: 8mi
Dew Point: 25°   Wind: 9mph
Humidity: 86%   Direction: 260°W
Pressure: 30.19"   Gusts: NA
Location:  41.5°N, 83.72°W
Report Text: KTOL 190203Z 26008KT 8SM FEW014 OVC027 M02/M04 A3019 RMK AO2
Loading
Personal Weather Stations






























Interactive Weather Map New forecast layout! Learn more

10-Day Weather Forecast

Advertisements
Track Severe Weather on mobile